createdAt,value
2017-09-24T07:18:20.055Z,10.80
2017-09-24T07:20:48.581Z,11.60
2017-09-24T07:23:16.971Z,13.73
2017-09-24T07:25:45.510Z,20.00
2017-09-24T07:28:17.785Z,26.37
2017-09-24T07:30:54.330Z,33.97
2017-09-24T07:33:22.877Z,30.37
2017-09-24T07:35:51.425Z,31.17
2017-09-24T07:38:20.071Z,36.57
2017-09-24T07:40:48.506Z,36.73
2017-09-24T07:43:16.993Z,33.10
2017-09-24T07:45:45.402Z,37.67
2017-09-24T07:48:13.780Z,35.50
2017-09-24T07:50:42.156Z,41.70
2017-09-24T07:53:10.512Z,32.90
2017-09-24T07:55:39.025Z,27.70
2017-09-24T07:58:07.468Z,39.67
2017-09-24T08:00:35.921Z,35.17
2017-09-24T08:03:04.512Z,35.67
2017-09-24T08:05:32.918Z,34.10
2017-09-24T08:08:01.303Z,28.27
2017-09-24T08:10:29.865Z,30.40
2017-09-24T08:12:58.256Z,34.70
2017-09-24T08:15:26.729Z,33.63
2017-09-24T08:17:56.361Z,35.33
2017-09-24T08:20:24.891Z,27.10
2017-09-24T08:22:53.919Z,31.47
2017-09-24T08:25:22.581Z,38.40
2017-09-24T08:27:50.986Z,31.00
2017-09-24T08:30:19.819Z,30.67
2017-09-24T08:32:48.451Z,29.67
2017-09-24T08:35:17.771Z,30.40
2017-09-24T08:37:47.360Z,25.17
2017-09-24T08:40:15.884Z,24.40
2017-09-24T08:42:44.419Z,24.07
2017-09-24T08:45:13.266Z,31.00
2017-09-24T08:47:41.873Z,28.70
2017-09-24T08:50:11.773Z,20.97
2017-09-24T08:52:40.373Z,25.80
2017-09-24T08:55:08.858Z,35.33
2017-09-24T08:57:37.866Z,37.10
2017-09-24T09:00:06.451Z,23.57
2017-09-24T09:02:34.883Z,28.10
2017-09-24T09:05:03.362Z,29.70
2017-09-24T09:07:31.968Z,30.80
2017-09-24T09:10:00.370Z,38.80
2017-09-24T09:12:28.807Z,31.70
2017-09-24T09:14:57.233Z,29.50
2017-09-24T09:17:25.713Z,34.60
2017-09-24T09:19:54.177Z,37.80
2017-09-24T09:22:22.584Z,40.00
2017-09-24T09:24:51.887Z,36.50
2017-09-24T09:27:20.474Z,33.40
2017-09-24T09:29:49.450Z,30.20
2017-09-24T09:32:18.685Z,32.60
2017-09-24T09:34:56.658Z,39.07
2017-09-24T09:37:25.313Z,28.13
2017-09-24T09:39:53.982Z,23.40
2017-09-24T09:42:23.504Z,32.80
2017-09-24T09:44:52.982Z,28.70
2017-09-24T09:47:27.075Z,34.03
2017-09-24T09:49:56.562Z,38.03
2017-09-24T09:52:25.119Z,30.10
2017-09-24T09:54:53.596Z,31.23
2017-09-24T09:57:22.616Z,29.27
2017-09-24T09:59:51.796Z,33.77
2017-09-24T10:02:20.371Z,43.50
2017-09-24T10:04:49.130Z,32.93
2017-09-24T10:07:26.582Z,34.40
2017-09-24T10:10:17.001Z,38.67
2017-09-24T10:12:46.891Z,38.20
2017-09-24T10:15:15.411Z,30.77
2017-09-24T10:17:44.215Z,31.40
2017-09-24T10:20:12.655Z,34.97
2017-09-24T10:22:41.943Z,41.80
2017-09-24T10:25:10.761Z,37.60
2017-09-24T10:27:39.733Z,33.07
2017-09-24T10:30:17.318Z,29.57
2017-09-24T10:32:46.470Z,38.87
2017-09-24T10:35:18.315Z,33.57
2017-09-24T10:37:49.636Z,27.77
2017-09-24T10:40:20.284Z,29.47
2017-09-24T10:42:50.275Z,30.63
2017-09-24T10:45:22.070Z,38.43
2017-09-24T10:47:51.529Z,34.43
2017-09-24T10:50:20.173Z,33.90
2017-09-24T10:52:50.366Z,33.93
2017-09-24T10:55:20.013Z,35.30
2017-09-24T10:57:48.882Z,34.40
2017-09-24T11:00:18.761Z,32.77
2017-09-24T11:02:47.863Z,33.70
2017-09-24T11:05:17.417Z,43.67
2017-09-24T11:07:45.840Z,29.67
2017-09-24T11:10:14.769Z,36.10
2017-09-24T11:12:43.396Z,31.87
2017-09-24T11:15:13.434Z,33.23
2017-09-24T11:17:42.569Z,31.90
2017-09-24T11:20:11.083Z,40.27
2017-09-24T11:22:40.239Z,35.07
2017-09-24T11:25:09.475Z,40.80
2017-09-24T11:27:37.936Z,39.33
2017-09-24T11:30:08.802Z,39.47
2017-09-24T11:32:38.056Z,34.77
2017-09-24T11:35:07.936Z,36.53
2017-09-24T11:37:37.164Z,36.90
2017-09-24T11:40:07.633Z,36.40
2017-09-24T11:42:36.419Z,31.67
2017-09-24T11:45:05.490Z,28.47
2017-09-24T11:47:33.916Z,33.67
2017-09-24T11:50:05.628Z,44.17
2017-09-24T11:52:34.633Z,45.40
2017-09-24T11:55:03.341Z,47.03
2017-09-24T11:57:32.316Z,37.70
2017-09-24T12:00:00.948Z,42.10
2017-09-24T12:02:31.611Z,41.07
2017-09-24T12:05:00.270Z,41.67
2017-09-24T12:07:30.313Z,35.73
2017-09-24T12:09:58.742Z,38.03
2017-09-24T12:12:27.156Z,37.70
2017-09-24T12:14:55.589Z,34.97
2017-09-24T12:17:24.006Z,40.13
2017-09-24T12:19:52.442Z,39.40
2017-09-24T12:22:22.686Z,38.40
2017-09-24T12:24:52.883Z,41.27
2017-09-24T12:27:21.745Z,34.40
2017-09-24T12:29:50.269Z,39.23
2017-09-24T12:32:19.853Z,44.77
2017-09-24T12:34:48.499Z,39.40
2017-09-24T12:37:17.255Z,36.03
2017-09-24T12:39:46.407Z,38.23
2017-09-24T12:42:19.408Z,36.90
2017-09-24T12:44:48.909Z,39.03
2017-09-24T12:47:17.888Z,38.63
2017-09-24T12:49:47.100Z,43.03
2017-09-24T12:52:16.588Z,44.13
2017-09-24T12:54:45.919Z,38.43
2017-09-24T12:57:15.350Z,34.27
2017-09-24T12:59:43.841Z,44.10
2017-09-24T13:02:15.080Z,38.57
2017-09-24T13:04:45.937Z,31.67
2017-09-24T13:07:15.542Z,41.60
2017-09-24T13:09:45.786Z,37.10
2017-09-24T13:12:14.809Z,43.07
2017-09-24T13:14:43.890Z,41.37
2017-09-24T13:17:15.645Z,36.23
2017-09-24T13:19:46.228Z,45.37
2017-09-24T13:22:15.047Z,41.67
2017-09-24T13:24:46.799Z,39.70
2017-09-24T13:27:15.454Z,36.70
2017-09-24T13:29:44.031Z,39.47
2017-09-24T13:32:13.314Z,39.33
2017-09-24T13:34:41.762Z,39.10
2017-09-24T13:37:10.264Z,42.93
2017-09-24T13:39:39.117Z,44.43
2017-09-24T13:42:08.635Z,36.30
2017-09-24T13:44:37.597Z,32.80
2017-09-24T13:47:07.747Z,29.50
2017-09-24T13:49:37.735Z,44.30
2017-09-24T13:52:08.204Z,39.50
2017-09-24T13:54:40.928Z,46.60
2017-09-24T13:57:20.496Z,38.37
2017-09-24T13:59:50.251Z,42.63
2017-09-24T14:02:21.923Z,38.80
2017-09-24T14:04:52.699Z,48.43
2017-09-24T14:07:22.953Z,45.00
2017-09-24T14:09:55.387Z,44.23
2017-09-24T14:12:25.740Z,38.10
2017-09-24T14:14:55.979Z,43.17
2017-09-24T14:17:27.345Z,44.00
2017-09-24T14:19:57.867Z,38.30
2017-09-24T14:22:27.874Z,42.63
2017-09-24T14:24:58.103Z,40.03
2017-09-24T14:27:28.145Z,40.37
2017-09-24T14:29:59.122Z,38.50
2017-09-24T14:32:30.971Z,40.20
2017-09-24T14:35:00.472Z,36.87
2017-09-24T14:37:32.074Z,40.57
2017-09-24T14:40:04.028Z,33.60
2017-09-24T14:42:33.705Z,39.00
2017-09-24T14:45:06.993Z,30.77
2017-09-24T14:47:37.643Z,39.60
2017-09-24T14:50:10.921Z,41.70
2017-09-24T14:52:40.177Z,42.33
2017-09-24T14:55:11.822Z,38.07
2017-09-24T14:57:40.785Z,41.80
2017-09-24T15:00:27.600Z,37.60
2017-09-24T15:02:56.234Z,39.47
2017-09-24T15:05:25.072Z,42.60
2017-09-24T15:07:54.801Z,35.60
2017-09-24T15:10:23.371Z,29.17
2017-09-24T15:12:51.752Z,35.00
2017-09-24T15:15:20.102Z,27.50
2017-09-24T15:17:48.597Z,42.00
2017-09-24T15:20:17.557Z,42.60
2017-09-24T15:22:46.160Z,33.37
2017-09-24T15:25:14.653Z,38.00
2017-09-24T15:27:42.966Z,39.07
2017-09-24T15:30:11.303Z,40.03
2017-09-24T15:32:39.822Z,36.33
2017-09-24T15:35:08.216Z,39.50
2017-09-24T15:37:36.576Z,39.30
2017-09-24T15:40:05.027Z,40.67
2017-09-24T15:42:33.297Z,41.53
2017-09-24T15:45:01.815Z,36.07
2017-09-24T15:47:30.224Z,37.47
2017-09-24T15:49:59.297Z,33.00
2017-09-24T15:52:27.747Z,32.17
2017-09-24T15:55:56.051Z,34.40
2017-09-24T15:58:24.352Z,30.53
2017-09-24T16:00:52.809Z,37.10
2017-09-24T16:03:21.317Z,39.53
2017-09-24T16:05:50.198Z,38.10
2017-09-24T16:08:18.521Z,32.30
2017-09-24T16:10:46.968Z,29.77
2017-09-24T16:13:15.332Z,35.40
2017-09-24T16:15:46.972Z,26.73
2017-09-24T16:18:15.601Z,26.50
2017-09-24T16:20:48.163Z,31.63
2017-09-24T16:23:16.830Z,24.33
2017-09-24T16:25:45.327Z,27.83
2017-09-24T16:28:13.662Z,27.63
2017-09-24T16:30:42.003Z,22.67
2017-09-24T16:33:10.423Z,22.33
2017-09-24T16:35:38.741Z,24.00
2017-09-24T16:38:07.064Z,23.57
2017-09-24T16:40:35.670Z,20.60
2017-09-24T16:43:04.099Z,20.50
2017-09-24T16:45:32.671Z,25.63
2017-09-24T16:48:01.425Z,23.77
2017-09-24T16:50:29.780Z,22.30
2017-09-24T16:52:58.243Z,20.77
2017-09-24T16:55:26.563Z,20.87
2017-09-24T16:57:54.894Z,26.10
2017-09-24T17:00:23.240Z,21.97
2017-09-24T17:02:51.564Z,22.17
2017-09-24T17:05:19.897Z,20.00
2017-09-24T17:07:50.914Z,22.30
2017-09-24T17:10:19.494Z,21.90
2017-09-24T17:12:47.783Z,23.27
2017-09-24T17:15:16.449Z,26.27
2017-09-24T17:17:45.177Z,20.77
2017-09-24T17:20:13.566Z,21.23
2017-09-24T17:22:41.904Z,23.73
2017-09-24T17:25:10.260Z,22.33
2017-09-24T17:27:38.579Z,22.93
2017-09-24T17:30:07.885Z,22.50
2017-09-24T17:32:36.368Z,22.40
2017-09-24T17:35:04.771Z,21.97
2017-09-24T17:37:33.194Z,25.53
2017-09-24T17:40:01.455Z,24.93
2017-09-24T17:42:29.808Z,25.10
2017-09-24T17:44:58.116Z,21.80
2017-09-24T17:47:30.266Z,22.37
2017-09-24T17:49:59.775Z,26.40
2017-09-24T17:52:28.298Z,28.67
2017-09-24T17:54:56.666Z,27.90
2017-09-24T17:57:25.567Z,24.43
2017-09-24T17:59:54.811Z,26.70
2017-09-24T18:02:24.854Z,29.97
2017-09-24T18:04:53.256Z,28.23
2017-09-24T18:07:21.639Z,27.40
2017-09-24T18:10:02.080Z,24.47
2017-09-24T18:12:30.549Z,26.40
2017-09-24T18:14:59.612Z,22.90
2017-09-24T18:17:28.665Z,22.90
2017-09-24T18:19:58.748Z,23.40
2017-09-24T18:22:27.216Z,25.70
2017-09-24T18:24:56.547Z,25.03
2017-09-24T18:27:25.079Z,32.10
2017-09-24T18:29:53.524Z,29.87
2017-09-24T18:32:22.727Z,25.70
2017-09-24T18:34:52.196Z,25.80
2017-09-24T18:37:20.664Z,22.40
2017-09-24T18:39:49.347Z,22.50
2017-09-24T18:42:20.572Z,24.80
2017-09-24T18:44:50.171Z,26.37
2017-09-24T18:47:20.932Z,25.10
2017-09-24T18:49:54.620Z,24.47
2017-09-24T18:52:35.356Z,28.80
2017-09-24T18:55:08.206Z,25.40
2017-09-24T18:57:38.497Z,31.20
2017-09-24T19:00:13.218Z,29.67
2017-09-24T19:02:42.227Z,27.83
2017-09-24T19:05:19.282Z,26.87
2017-09-24T19:07:52.498Z,27.60
2017-09-24T19:10:24.665Z,24.67
2017-09-24T19:12:54.536Z,23.07
2017-09-24T19:15:23.593Z,23.40
2017-09-24T19:17:53.144Z,24.40
2017-09-24T19:20:24.307Z,25.50
2017-09-24T19:22:59.350Z,23.90
2017-09-24T19:25:30.295Z,23.37
2017-09-24T19:28:00.959Z,23.93
2017-09-24T19:30:33.723Z,25.60
2017-09-24T19:33:04.947Z,29.10
2017-09-24T19:35:34.912Z,22.10
2017-09-24T19:38:03.271Z,27.80
2017-09-24T19:40:33.507Z,26.20
2017-09-24T19:43:01.833Z,26.90
2017-09-24T19:45:37.339Z,31.97
2017-09-24T19:48:05.755Z,25.70
2017-09-24T19:50:34.262Z,26.17
2017-09-24T19:53:02.747Z,22.80
2017-09-24T19:55:31.346Z,30.23
2017-09-24T19:57:59.836Z,24.80
2017-09-24T20:00:28.822Z,29.43
2017-09-24T20:02:57.406Z,29.63
2017-09-24T20:05:26.372Z,28.23
2017-09-24T20:07:54.875Z,26.10
2017-09-24T20:10:23.336Z,28.67
2017-09-24T20:12:53.220Z,26.60
2017-09-24T20:15:23.039Z,25.90
2017-09-24T20:17:51.688Z,24.90
2017-09-24T20:20:20.050Z,28.37
2017-09-24T20:22:48.368Z,26.07
2017-09-24T20:25:16.891Z,25.20
2017-09-24T20:27:45.242Z,23.80
2017-09-24T20:30:13.747Z,23.73
2017-09-24T20:32:42.071Z,22.03
2017-09-24T20:35:10.425Z,22.60
2017-09-24T20:37:38.994Z,21.80
2017-09-24T20:40:07.494Z,20.77
2017-09-24T20:42:35.820Z,24.00
2017-09-24T20:45:04.150Z,23.33
2017-09-24T20:47:32.463Z,22.87
2017-09-24T20:50:00.732Z,22.43
2017-09-24T20:52:29.116Z,23.00
2017-09-24T20:54:57.423Z,20.70
2017-09-24T20:57:25.783Z,22.27
2017-09-24T20:59:54.285Z,22.27
2017-09-24T21:02:22.795Z,22.23
2017-09-24T21:04:51.241Z,20.57
2017-09-24T21:07:19.577Z,21.23
2017-09-24T21:09:47.875Z,17.47
2017-09-24T21:12:16.268Z,19.30
2017-09-24T21:14:44.755Z,20.10
2017-09-24T21:17:13.694Z,22.23
2017-09-24T21:19:42.012Z,22.27
2017-09-24T21:22:10.418Z,21.10
2017-09-24T21:24:38.714Z,21.43
2017-09-24T21:27:07.124Z,18.60
2017-09-24T21:29:35.415Z,22.20
2017-09-24T21:32:04.812Z,22.10
2017-09-24T21:34:33.355Z,21.20
2017-09-24T21:37:01.828Z,22.10
2017-09-24T21:39:30.159Z,21.53
2017-09-24T21:41:58.595Z,20.50
2017-09-24T21:44:27.646Z,19.80
2017-09-24T21:46:56.841Z,20.00
2017-09-24T21:49:25.132Z,20.33
2017-09-24T21:51:53.609Z,20.90
2017-09-24T21:54:22.227Z,23.47
2017-09-24T21:56:51.463Z,18.70
2017-09-24T21:59:19.845Z,21.53
2017-09-24T22:01:48.735Z,20.93
2017-09-24T22:04:17.260Z,18.10
2017-09-24T22:06:45.700Z,21.87
2017-09-24T22:09:14.163Z,19.87
2017-09-24T22:11:45.865Z,21.00
2017-09-24T22:14:14.604Z,20.17
2017-09-24T22:16:43.257Z,19.30
2017-09-24T22:19:11.649Z,20.53
2017-09-24T22:21:41.043Z,29.60
2017-09-24T22:24:09.693Z,26.90
2017-09-24T22:26:38.690Z,26.30
2017-09-24T22:29:09.488Z,26.50
2017-09-24T22:31:39.686Z,24.47
2017-09-24T22:34:08.521Z,24.00
2017-09-24T22:36:39.935Z,23.13
2017-09-24T22:39:11.157Z,24.37
2017-09-24T22:41:39.648Z,26.03
2017-09-24T22:44:10.825Z,21.60
2017-09-24T22:46:40.072Z,24.13
2017-09-24T22:49:08.696Z,27.67
2017-09-24T22:51:38.097Z,25.40
2017-09-24T22:54:07.623Z,24.70
2017-09-24T22:56:36.269Z,21.20
2017-09-24T22:59:05.085Z,22.23
2017-09-24T23:01:34.788Z,22.30
2017-09-24T23:04:04.648Z,23.97
2017-09-24T23:06:35.286Z,20.90
2017-09-24T23:09:04.995Z,20.80
2017-09-24T23:11:33.499Z,20.10
2017-09-24T23:14:02.197Z,21.67
2017-09-24T23:16:37.376Z,21.60
2017-09-24T23:19:13.164Z,21.03
2017-09-24T23:21:47.222Z,18.37
2017-09-24T23:24:18.596Z,18.97
2017-09-24T23:26:47.814Z,21.50
2017-09-24T23:29:20.396Z,20.90
2017-09-24T23:31:52.968Z,22.07
2017-09-24T23:34:28.118Z,22.03
2017-09-24T23:36:58.238Z,19.30
2017-09-24T23:39:29.532Z,18.03
2017-09-24T23:42:01.970Z,19.50
2017-09-24T23:44:32.108Z,19.00
2017-09-24T23:47:01.979Z,22.17
2017-09-24T23:49:32.815Z,20.27
2017-09-24T23:52:08.771Z,23.03
2017-09-24T23:54:37.554Z,22.10
2017-09-24T23:57:08.889Z,19.37
2017-09-24T23:59:39.047Z,18.73
